McLain, Mississippi
Current Conditions -  °F | °C
As of 8:53 AM on Wednesday 22 Oct 2014 (Local Time) from KHBG Reporting Station
Clear Clear  
Wind Chill: 61°   Ceiling: Unl
Heat Index: 61°   Visibility: 10mi
Dew Point: 53°   Wind: 3mph
Humidity: 75%   Direction: 350°N
Pressure: 30.13"   Gusts: NA
Location:  31.11°N, 88.83°W
Report Text: KHBG 221353Z AUTO 35003KT 10SM CLR 16/12 A3013 RMK AO2 SLP203 T01610117
Loading
Personal Weather Stations






























Interactive Weather Map
Tropical Storm Tracking
New forecast layout! Learn more

10-Day Weather Forecast

Advertisements
Track Severe Weather on mobile